sensor_id;sensor_type;location;lat;lon;timestamp;P1;durP1;ratioP1;P2;durP2;ratioP2
19812;SDS011;10066;48.108;11.448;2022-12-20T00:00:04;14.93;;;7.63;;
19812;SDS011;10066;48.108;11.448;2022-12-20T00:02:32;18.20;;;10.57;;
19812;SDS011;10066;48.108;11.448;2022-12-20T00:04:59;16.70;;;10.00;;
19812;SDS011;10066;48.108;11.448;2022-12-20T00:07:25;12.73;;;8.10;;
19812;SDS011;10066;48.108;11.448;2022-12-20T00:09:52;12.80;;;8.00;;
19812;SDS011;10066;48.108;11.448;2022-12-20T00:12:21;13.27;;;8.27;;
19812;SDS011;10066;48.108;11.448;2022-12-20T00:14:48;11.50;;;7.50;;
19812;SDS011;10066;48.108;11.448;2022-12-20T00:17:15;16.33;;;8.50;;
19812;SDS011;10066;48.108;11.448;2022-12-20T00:19:42;15.50;;;8.00;;
19812;SDS011;10066;48.108;11.448;2022-12-20T00:22:09;13.87;;;8.53;;
19812;SDS011;10066;48.108;11.448;2022-12-20T00:24:36;13.27;;;8.23;;
19812;SDS011;10066;48.108;11.448;2022-12-20T00:27:03;13.70;;;8.00;;
19812;SDS011;10066;48.108;11.448;2022-12-20T00:29:31;13.40;;;8.33;;
19812;SDS011;10066;48.108;11.448;2022-12-20T00:31:58;13.80;;;8.90;;
19812;SDS011;10066;48.108;11.448;2022-12-20T00:34:25;12.93;;;8.50;;
19812;SDS011;10066;48.108;11.448;2022-12-20T00:36:52;15.37;;;9.33;;
19812;SDS011;10066;48.108;11.448;2022-12-20T00:39:19;15.83;;;10.17;;
19812;SDS011;10066;48.108;11.448;2022-12-20T00:41:46;13.00;;;8.77;;
19812;SDS011;10066;48.108;11.448;2022-12-20T00:44:12;14.47;;;9.00;;
19812;SDS011;10066;48.108;11.448;2022-12-20T00:46:41;18.77;;;9.77;;
19812;SDS011;10066;48.108;11.448;2022-12-20T00:49:07;15.37;;;9.43;;
19812;SDS011;10066;48.108;11.448;2022-12-20T00:51:35;14.80;;;9.03;;
19812;SDS011;10066;48.108;11.448;2022-12-20T00:54:01;11.77;;;7.07;;
19812;SDS011;10066;48.108;11.448;2022-12-20T00:56:28;13.20;;;7.67;;
19812;SDS011;10066;48.108;11.448;2022-12-20T00:58:56;13.47;;;8.13;;
19812;SDS011;10066;48.108;11.448;2022-12-20T01:01:25;12.43;;;8.17;;
19812;SDS011;10066;48.108;11.448;2022-12-20T01:03:55;12.63;;;7.77;;
19812;SDS011;10066;48.108;11.448;2022-12-20T01:06:23;12.40;;;7.57;;
19812;SDS011;10066;48.108;11.448;2022-12-20T01:08:50;11.20;;;7.43;;
19812;SDS011;10066;48.108;11.448;2022-12-20T01:11:18;12.43;;;6.53;;
19812;SDS011;10066;48.108;11.448;2022-12-20T01:13:47;12.90;;;7.90;;
19812;SDS011;10066;48.108;11.448;2022-12-20T01:16:16;10.90;;;5.87;;
19812;SDS011;10066;48.108;11.448;2022-12-20T01:18:44;8.77;;;5.10;;
19812;SDS011;10066;48.108;11.448;2022-12-20T01:21:13;6.77;;;5.07;;
19812;SDS011;10066;48.108;11.448;2022-12-20T01:23:42;9.20;;;4.93;;
19812;SDS011;10066;48.108;11.448;2022-12-20T01:26:10;7.73;;;4.93;;
19812;SDS011;10066;48.108;11.448;2022-12-20T01:28:42;7.93;;;5.30;;
19812;SDS011;10066;48.108;11.448;2022-12-20T01:31:12;7.80;;;4.60;;
19812;SDS011;10066;48.108;11.448;2022-12-20T01:33:41;6.40;;;4.30;;
19812;SDS011;10066;48.108;11.448;2022-12-20T01:36:13;6.47;;;4.00;;
19812;SDS011;10066;48.108;11.448;2022-12-20T01:38:43;5.97;;;3.90;;
19812;SDS011;10066;48.108;11.448;2022-12-20T01:41:12;6.20;;;4.33;;
19812;SDS011;10066;48.108;11.448;2022-12-20T01:43:45;5.47;;;3.73;;
19812;SDS011;10066;48.108;11.448;2022-12-20T01:46:17;5.50;;;3.67;;
19812;SDS011;10066;48.108;11.448;2022-12-20T01:48:46;5.23;;;3.80;;
19812;SDS011;10066;48.108;11.448;2022-12-20T01:51:18;6.80;;;4.03;;
19812;SDS011;10066;48.108;11.448;2022-12-20T01:53:46;6.40;;;3.33;;
19812;SDS011;10066;48.108;11.448;2022-12-20T01:56:17;5.93;;;3.27;;
19812;SDS011;10066;48.108;11.448;2022-12-20T01:58:44;5.40;;;3.33;;
19812;SDS011;10066;48.108;11.448;2022-12-20T02:01:14;4.40;;;3.47;;
19812;SDS011;10066;48.108;11.448;2022-12-20T02:03:41;7.70;;;3.97;;
19812;SDS011;10066;48.108;11.448;2022-12-20T02:06:13;5.30;;;3.87;;
19812;SDS011;10066;48.108;11.448;2022-12-20T02:08:43;6.20;;;3.50;;
19812;SDS011;10066;48.108;11.448;2022-12-20T02:11:20;4.13;;;3.33;;
19812;SDS011;10066;48.108;11.448;2022-12-20T02:14:00;5.67;;;3.77;;
19812;SDS011;10066;48.108;11.448;2022-12-20T02:16:42;4.60;;;2.83;;
19812;SDS011;10066;48.108;11.448;2022-12-20T02:19:20;5.00;;;3.03;;
19812;SDS011;10066;48.108;11.448;2022-12-20T02:22:02;6.87;;;3.53;;
19812;SDS011;10066;48.108;11.448;2022-12-20T02:24:49;4.20;;;2.60;;
19812;SDS011;10066;48.108;11.448;2022-12-20T02:27:30;4.47;;;3.17;;
19812;SDS011;10066;48.108;11.448;2022-12-20T02:30:15;3.30;;;2.50;;
19812;SDS011;10066;48.108;11.448;2022-12-20T02:32:47;6.03;;;3.13;;
19812;SDS011;10066;48.108;11.448;2022-12-20T02:35:21;2.90;;;2.23;;
19812;SDS011;10066;48.108;11.448;2022-12-20T02:37:50;3.30;;;2.47;;
19812;SDS011;10066;48.108;11.448;2022-12-20T02:40:21;3.43;;;2.53;;
19812;SDS011;10066;48.108;11.448;2022-12-20T02:42:50;3.77;;;2.50;;
19812;SDS011;10066;48.108;11.448;2022-12-20T02:45:23;5.23;;;2.73;;
19812;SDS011;10066;48.108;11.448;2022-12-20T02:47:54;3.97;;;2.70;;
19812;SDS011;10066;48.108;11.448;2022-12-20T02:50:25;4.63;;;2.80;;
19812;SDS011;10066;48.108;11.448;2022-12-20T02:52:56;4.03;;;2.23;;
19812;SDS011;10066;48.108;11.448;2022-12-20T02:55:27;4.50;;;2.40;;
19812;SDS011;10066;48.108;11.448;2022-12-20T02:58:01;4.53;;;2.30;;
19812;SDS011;10066;48.108;11.448;2022-12-20T03:00:36;4.43;;;3.00;;
19812;SDS011;10066;48.108;11.448;2022-12-20T03:03:06;3.43;;;2.50;;
19812;SDS011;10066;48.108;11.448;2022-12-20T03:05:50;4.00;;;2.40;;
19812;SDS011;10066;48.108;11.448;2022-12-20T03:08:19;4.30;;;2.20;;
19812;SDS011;10066;48.108;11.448;2022-12-20T03:10:47;4.50;;;2.50;;
19812;SDS011;10066;48.108;11.448;2022-12-20T03:13:14;3.03;;;1.90;;
19812;SDS011;10066;48.108;11.448;2022-12-20T03:15:43;3.20;;;2.10;;
19812;SDS011;10066;48.108;11.448;2022-12-20T03:18:10;3.50;;;2.40;;
19812;SDS011;10066;48.108;11.448;2022-12-20T03:20:37;4.47;;;2.47;;
19812;SDS011;10066;48.108;11.448;2022-12-20T03:23:05;4.03;;;2.30;;
19812;SDS011;10066;48.108;11.448;2022-12-20T03:25:32;2.73;;;2.30;;
19812;SDS011;10066;48.108;11.448;2022-12-20T03:27:58;3.27;;;2.20;;
19812;SDS011;10066;48.108;11.448;2022-12-20T03:30:26;4.03;;;2.10;;
19812;SDS011;10066;48.108;11.448;2022-12-20T03:32:54;3.10;;;2.10;;
19812;SDS011;10066;48.108;11.448;2022-12-20T03:35:21;3.23;;;2.10;;
19812;SDS011;10066;48.108;11.448;2022-12-20T03:37:48;4.80;;;2.17;;
19812;SDS011;10066;48.108;11.448;2022-12-20T03:40:15;3.80;;;2.20;;
19812;SDS011;10066;48.108;11.448;2022-12-20T03:42:42;3.67;;;2.20;;
19812;SDS011;10066;48.108;11.448;2022-12-20T03:45:09;4.57;;;2.30;;
19812;SDS011;10066;48.108;11.448;2022-12-20T03:47:36;3.03;;;2.23;;
19812;SDS011;10066;48.108;11.448;2022-12-20T03:50:05;2.83;;;2.23;;
19812;SDS011;10066;48.108;11.448;2022-12-20T03:52:34;3.67;;;2.30;;
19812;SDS011;10066;48.108;11.448;2022-12-20T03:55:01;3.27;;;2.03;;
19812;SDS011;10066;48.108;11.448;2022-12-20T03:57:28;3.07;;;2.00;;
19812;SDS011;10066;48.108;11.448;2022-12-20T03:59:55;2.73;;;2.20;;
19812;SDS011;10066;48.108;11.448;2022-12-20T04:02:22;2.97;;;2.00;;
19812;SDS011;10066;48.108;11.448;2022-12-20T04:04:49;3.03;;;2.20;;
19812;SDS011;10066;48.108;11.448;2022-12-20T04:07:17;2.50;;;1.77;;
19812;SDS011;10066;48.108;11.448;2022-12-20T04:09:44;3.37;;;2.10;;
19812;SDS011;10066;48.108;11.448;2022-12-20T04:12:11;3.57;;;1.83;;
19812;SDS011;10066;48.108;11.448;2022-12-20T04:14:38;2.70;;;2.00;;
19812;SDS011;10066;48.108;11.448;2022-12-20T04:17:05;3.23;;;1.80;;
19812;SDS011;10066;48.108;11.448;2022-12-20T04:19:33;2.23;;;1.50;;
19812;SDS011;10066;48.108;11.448;2022-12-20T04:22:00;2.87;;;2.10;;
19812;SDS011;10066;48.108;11.448;2022-12-20T04:24:29;3.73;;;1.93;;
19812;SDS011;10066;48.108;11.448;2022-12-20T04:26:56;3.93;;;2.30;;
19812;SDS011;10066;48.108;11.448;2022-12-20T04:29:23;4.17;;;2.03;;
19812;SDS011;10066;48.108;11.448;2022-12-20T04:31:50;2.67;;;1.90;;
19812;SDS011;10066;48.108;11.448;2022-12-20T04:34:16;3.27;;;2.20;;
19812;SDS011;10066;48.108;11.448;2022-12-20T04:36:43;3.73;;;2.10;;
19812;SDS011;10066;48.108;11.448;2022-12-20T04:39:10;2.80;;;2.07;;
19812;SDS011;10066;48.108;11.448;2022-12-20T04:41:39;2.90;;;1.83;;
19812;SDS011;10066;48.108;11.448;2022-12-20T04:44:06;3.83;;;2.40;;
19812;SDS011;10066;48.108;11.448;2022-12-20T04:46:33;3.20;;;2.43;;
19812;SDS011;10066;48.108;11.448;2022-12-20T04:48:59;4.13;;;2.33;;
19812;SDS011;10066;48.108;11.448;2022-12-20T04:51:27;5.97;;;2.40;;
19812;SDS011;10066;48.108;11.448;2022-12-20T04:53:54;3.53;;;2.10;;
19812;SDS011;10066;48.108;11.448;2022-12-20T04:56:21;3.00;;;2.10;;
19812;SDS011;10066;48.108;11.448;2022-12-20T04:58:51;6.20;;;2.63;;
19812;SDS011;10066;48.108;11.448;2022-12-20T05:01:19;5.23;;;2.93;;
19812;SDS011;10066;48.108;11.448;2022-12-20T05:03:46;6.43;;;2.67;;
19812;SDS011;10066;48.108;11.448;2022-12-20T05:06:14;4.07;;;2.60;;
19812;SDS011;10066;48.108;11.448;2022-12-20T05:08:42;4.30;;;2.80;;
19812;SDS011;10066;48.108;11.448;2022-12-20T05:11:12;5.33;;;2.73;;
19812;SDS011;10066;48.108;11.448;2022-12-20T05:13:39;4.93;;;2.77;;
19812;SDS011;10066;48.108;11.448;2022-12-20T05:16:08;2.97;;;1.93;;
19812;SDS011;10066;48.108;11.448;2022-12-20T05:18:35;2.97;;;2.20;;
19812;SDS011;10066;48.108;11.448;2022-12-20T05:21:02;4.43;;;2.10;;
19812;SDS011;10066;48.108;11.448;2022-12-20T05:23:47;5.17;;;2.20;;
19812;SDS011;10066;48.108;11.448;2022-12-20T05:26:32;4.90;;;2.30;;
19812;SDS011;10066;48.108;11.448;2022-12-20T05:29:01;2.27;;;1.90;;
19812;SDS011;10066;48.108;11.448;2022-12-20T05:31:30;4.07;;;2.27;;
19812;SDS011;10066;48.108;11.448;2022-12-20T05:33:57;5.57;;;2.27;;
19812;SDS011;10066;48.108;11.448;2022-12-20T05:36:24;3.27;;;2.30;;
19812;SDS011;10066;48.108;11.448;2022-12-20T05:38:51;2.60;;;1.87;;
19812;SDS011;10066;48.108;11.448;2022-12-20T05:41:18;4.47;;;2.10;;
19812;SDS011;10066;48.108;11.448;2022-12-20T05:43:45;3.10;;;2.10;;
19812;SDS011;10066;48.108;11.448;2022-12-20T05:46:12;3.50;;;2.07;;
19812;SDS011;10066;48.108;11.448;2022-12-20T05:48:40;2.90;;;2.10;;
19812;SDS011;10066;48.108;11.448;2022-12-20T05:51:07;6.50;;;2.60;;
19812;SDS011;10066;48.108;11.448;2022-12-20T05:53:34;2.80;;;2.20;;
19812;SDS011;10066;48.108;11.448;2022-12-20T05:56:03;3.27;;;2.07;;
19812;SDS011;10066;48.108;11.448;2022-12-20T05:58:30;3.73;;;2.40;;
19812;SDS011;10066;48.108;11.448;2022-12-20T06:00:58;3.10;;;2.20;;
19812;SDS011;10066;48.108;11.448;2022-12-20T06:03:26;3.13;;;2.00;;
19812;SDS011;10066;48.108;11.448;2022-12-20T06:05:54;3.30;;;2.17;;
19812;SDS011;10066;48.108;11.448;2022-12-20T06:08:21;3.13;;;1.80;;
19812;SDS011;10066;48.108;11.448;2022-12-20T06:10:49;3.00;;;1.83;;
19812;SDS011;10066;48.108;11.448;2022-12-20T06:13:16;2.73;;;2.10;;
19812;SDS011;10066;48.108;11.448;2022-12-20T06:15:44;3.27;;;2.60;;
19812;SDS011;10066;48.108;11.448;2022-12-20T06:18:11;3.73;;;2.23;;
19812;SDS011;10066;48.108;11.448;2022-12-20T06:20:38;5.53;;;2.20;;
19812;SDS011;10066;48.108;11.448;2022-12-20T06:23:07;2.77;;;1.83;;
19812;SDS011;10066;48.108;11.448;2022-12-20T06:25:34;3.27;;;2.03;;
19812;SDS011;10066;48.108;11.448;2022-12-20T06:28:03;2.03;;;1.67;;
19812;SDS011;10066;48.108;11.448;2022-12-20T06:30:31;3.63;;;1.80;;
19812;SDS011;10066;48.108;11.448;2022-12-20T06:32:59;3.33;;;1.73;;
19812;SDS011;10066;48.108;11.448;2022-12-20T06:35:26;4.17;;;1.90;;
19812;SDS011;10066;48.108;11.448;2022-12-20T06:37:53;3.03;;;1.67;;
19812;SDS011;10066;48.108;11.448;2022-12-20T06:40:22;3.50;;;2.00;;
19812;SDS011;10066;48.108;11.448;2022-12-20T06:42:49;2.87;;;1.63;;
19812;SDS011;10066;48.108;11.448;2022-12-20T06:45:16;3.37;;;1.70;;
19812;SDS011;10066;48.108;11.448;2022-12-20T06:47:43;5.90;;;2.30;;
19812;SDS011;10066;48.108;11.448;2022-12-20T06:50:10;3.93;;;1.80;;
19812;SDS011;10066;48.108;11.448;2022-12-20T06:52:37;3.20;;;2.30;;
19812;SDS011;10066;48.108;11.448;2022-12-20T06:55:05;2.50;;;1.90;;
19812;SDS011;10066;48.108;11.448;2022-12-20T06:57:33;2.63;;;1.70;;
19812;SDS011;10066;48.108;11.448;2022-12-20T07:00:00;2.63;;;1.47;;
19812;SDS011;10066;48.108;11.448;2022-12-20T07:02:27;2.73;;;1.57;;
19812;SDS011;10066;48.108;11.448;2022-12-20T07:04:54;4.93;;;1.70;;
19812;SDS011;10066;48.108;11.448;2022-12-20T07:07:21;3.03;;;1.63;;
19812;SDS011;10066;48.108;11.448;2022-12-20T07:09:48;3.10;;;1.83;;
19812;SDS011;10066;48.108;11.448;2022-12-20T07:12:15;4.67;;;2.00;;
19812;SDS011;10066;48.108;11.448;2022-12-20T07:14:44;3.17;;;1.77;;
19812;SDS011;10066;48.108;11.448;2022-12-20T07:17:11;9.17;;;1.97;;
19812;SDS011;10066;48.108;11.448;2022-12-20T07:19:38;3.07;;;1.60;;
19812;SDS011;10066;48.108;11.448;2022-12-20T07:22:05;2.63;;;1.60;;
19812;SDS011;10066;48.108;11.448;2022-12-20T07:24:32;3.83;;;1.60;;
19812;SDS011;10066;48.108;11.448;2022-12-20T07:26:59;3.60;;;1.53;;
19812;SDS011;10066;48.108;11.448;2022-12-20T07:29:27;2.53;;;1.70;;
19812;SDS011;10066;48.108;11.448;2022-12-20T07:31:55;3.70;;;1.87;;
19812;SDS011;10066;48.108;11.448;2022-12-20T07:34:22;3.13;;;1.83;;
19812;SDS011;10066;48.108;11.448;2022-12-20T07:36:49;3.63;;;1.80;;
19812;SDS011;10066;48.108;11.448;2022-12-20T07:39:16;4.70;;;2.27;;
19812;SDS011;10066;48.108;11.448;2022-12-20T07:41:43;3.97;;;2.03;;
19812;SDS011;10066;48.108;11.448;2022-12-20T07:44:10;4.33;;;2.10;;
19812;SDS011;10066;48.108;11.448;2022-12-20T07:46:37;3.60;;;2.20;;
19812;SDS011;10066;48.108;11.448;2022-12-20T07:49:05;2.87;;;1.97;;
19812;SDS011;10066;48.108;11.448;2022-12-20T07:51:33;3.97;;;2.10;;
19812;SDS011;10066;48.108;11.448;2022-12-20T07:54:03;3.87;;;1.90;;
19812;SDS011;10066;48.108;11.448;2022-12-20T07:56:35;5.03;;;1.80;;
19812;SDS011;10066;48.108;11.448;2022-12-20T07:59:06;2.40;;;1.60;;
19812;SDS011;10066;48.108;11.448;2022-12-20T08:01:35;3.57;;;2.03;;
19812;SDS011;10066;48.108;11.448;2022-12-20T08:04:04;5.00;;;2.03;;
19812;SDS011;10066;48.108;11.448;2022-12-20T08:06:34;4.73;;;2.50;;
19812;SDS011;10066;48.108;11.448;2022-12-20T08:09:04;5.93;;;2.87;;
19812;SDS011;10066;48.108;11.448;2022-12-20T08:14:01;5.07;;;2.87;;
19812;SDS011;10066;48.108;11.448;2022-12-20T08:16:29;4.97;;;2.20;;
19812;SDS011;10066;48.108;11.448;2022-12-20T08:18:57;5.17;;;3.10;;
19812;SDS011;10066;48.108;11.448;2022-12-20T08:21:25;3.97;;;2.77;;
19812;SDS011;10066;48.108;11.448;2022-12-20T08:23:53;5.03;;;2.60;;
19812;SDS011;10066;48.108;11.448;2022-12-20T08:26:20;4.63;;;2.60;;
19812;SDS011;10066;48.108;11.448;2022-12-20T08:28:47;6.67;;;2.53;;
19812;SDS011;10066;48.108;11.448;2022-12-20T08:31:14;4.23;;;3.03;;
19812;SDS011;10066;48.108;11.448;2022-12-20T08:33:41;3.80;;;2.27;;
19812;SDS011;10066;48.108;11.448;2022-12-20T08:36:09;6.70;;;2.53;;
19812;SDS011;10066;48.108;11.448;2022-12-20T08:38:38;5.20;;;2.20;;
19812;SDS011;10066;48.108;11.448;2022-12-20T08:41:06;3.33;;;2.30;;
19812;SDS011;10066;48.108;11.448;2022-12-20T08:43:35;3.40;;;2.40;;
19812;SDS011;10066;48.108;11.448;2022-12-20T08:46:02;4.20;;;2.20;;
19812;SDS011;10066;48.108;11.448;2022-12-20T08:48:31;7.43;;;2.30;;
19812;SDS011;10066;48.108;11.448;2022-12-20T08:50:58;4.50;;;2.40;;
19812;SDS011;10066;48.108;11.448;2022-12-20T08:53:27;5.20;;;2.30;;
19812;SDS011;10066;48.108;11.448;2022-12-20T08:56:02;5.97;;;2.90;;
19812;SDS011;10066;48.108;11.448;2022-12-20T08:58:30;6.70;;;2.73;;
19812;SDS011;10066;48.108;11.448;2022-12-20T09:00:57;4.70;;;2.50;;
19812;SDS011;10066;48.108;11.448;2022-12-20T09:03:26;4.30;;;2.60;;
19812;SDS011;10066;48.108;11.448;2022-12-20T09:05:54;3.87;;;2.60;;
19812;SDS011;10066;48.108;11.448;2022-12-20T09:08:21;6.93;;;2.60;;
19812;SDS011;10066;48.108;11.448;2022-12-20T09:10:48;4.30;;;2.50;;
19812;SDS011;10066;48.108;11.448;2022-12-20T09:13:16;3.23;;;2.27;;
19812;SDS011;10066;48.108;11.448;2022-12-20T09:15:43;6.27;;;4.10;;
19812;SDS011;10066;48.108;11.448;2022-12-20T09:18:10;7.83;;;4.17;;
19812;SDS011;10066;48.108;11.448;2022-12-20T09:20:40;8.07;;;4.40;;
19812;SDS011;10066;48.108;11.448;2022-12-20T09:23:09;8.60;;;4.70;;
19812;SDS011;10066;48.108;11.448;2022-12-20T09:25:36;8.93;;;4.70;;
19812;SDS011;10066;48.108;11.448;2022-12-20T09:28:03;10.07;;;4.73;;
19812;SDS011;10066;48.108;11.448;2022-12-20T09:30:31;7.57;;;4.33;;
19812;SDS011;10066;48.108;11.448;2022-12-20T09:32:58;6.73;;;4.43;;
19812;SDS011;10066;48.108;11.448;2022-12-20T09:35:25;8.07;;;4.57;;
19812;SDS011;10066;48.108;11.448;2022-12-20T09:37:52;9.60;;;4.77;;
19812;SDS011;10066;48.108;11.448;2022-12-20T09:40:19;9.13;;;4.73;;
19812;SDS011;10066;48.108;11.448;2022-12-20T09:42:48;6.77;;;4.47;;
19812;SDS011;10066;48.108;11.448;2022-12-20T09:45:18;7.53;;;4.53;;
19812;SDS011;10066;48.108;11.448;2022-12-20T09:47:51;9.83;;;4.47;;
19812;SDS011;10066;48.108;11.448;2022-12-20T09:50:18;7.50;;;4.17;;
19812;SDS011;10066;48.108;11.448;2022-12-20T09:52:53;7.20;;;5.03;;
19812;SDS011;10066;48.108;11.448;2022-12-20T09:55:30;10.47;;;5.73;;
19812;SDS011;10066;48.108;11.448;2022-12-20T09:58:05;9.33;;;5.60;;
19812;SDS011;10066;48.108;11.448;2022-12-20T10:00:44;7.70;;;4.27;;
19812;SDS011;10066;48.108;11.448;2022-12-20T10:03:16;8.33;;;4.87;;
19812;SDS011;10066;48.108;11.448;2022-12-20T10:05:48;8.07;;;4.23;;
19812;SDS011;10066;48.108;11.448;2022-12-20T10:08:23;7.17;;;4.63;;
19812;SDS011;10066;48.108;11.448;2022-12-20T10:11:04;7.33;;;3.80;;
19812;SDS011;10066;48.108;11.448;2022-12-20T10:13:45;5.20;;;3.90;;
19812;SDS011;10066;48.108;11.448;2022-12-20T10:16:28;10.03;;;3.90;;
19812;SDS011;10066;48.108;11.448;2022-12-20T10:19:05;6.97;;;4.20;;
19812;SDS011;10066;48.108;11.448;2022-12-20T10:21:42;6.93;;;4.03;;
19812;SDS011;10066;48.108;11.448;2022-12-20T10:24:16;7.87;;;4.17;;
19812;SDS011;10066;48.108;11.448;2022-12-20T10:26:44;5.20;;;3.67;;
19812;SDS011;10066;48.108;11.448;2022-12-20T10:29:14;5.53;;;3.70;;
19812;SDS011;10066;48.108;11.448;2022-12-20T10:31:42;8.33;;;4.17;;
19812;SDS011;10066;48.108;11.448;2022-12-20T10:34:10;9.03;;;4.23;;
19812;SDS011;10066;48.108;11.448;2022-12-20T10:36:37;7.27;;;3.63;;
19812;SDS011;10066;48.108;11.448;2022-12-20T10:39:04;6.87;;;3.80;;
19812;SDS011;10066;48.108;11.448;2022-12-20T10:41:45;7.33;;;4.37;;
19812;SDS011;10066;48.108;11.448;2022-12-20T10:44:15;6.83;;;4.30;;
19812;SDS011;10066;48.108;11.448;2022-12-20T10:46:50;9.37;;;4.23;;
19812;SDS011;10066;48.108;11.448;2022-12-20T10:49:27;7.67;;;4.50;;
19812;SDS011;10066;48.108;11.448;2022-12-20T10:51:56;6.10;;;3.83;;
19812;SDS011;10066;48.108;11.448;2022-12-20T10:54:28;5.60;;;3.77;;
19812;SDS011;10066;48.108;11.448;2022-12-20T10:56:56;8.60;;;3.77;;
19812;SDS011;10066;48.108;11.448;2022-12-20T10:59:27;8.50;;;3.70;;
19812;SDS011;10066;48.108;11.448;2022-12-20T11:01:58;7.27;;;3.30;;
19812;SDS011;10066;48.108;11.448;2022-12-20T11:04:27;6.03;;;3.73;;
19812;SDS011;10066;48.108;11.448;2022-12-20T11:06:55;5.80;;;3.77;;
19812;SDS011;10066;48.108;11.448;2022-12-20T11:09:27;7.33;;;3.03;;
19812;SDS011;10066;48.108;11.448;2022-12-20T11:11:56;6.53;;;3.80;;
19812;SDS011;10066;48.108;11.448;2022-12-20T11:14:25;5.33;;;3.50;;
19812;SDS011;10066;48.108;11.448;2022-12-20T11:16:54;7.33;;;3.50;;
19812;SDS011;10066;48.108;11.448;2022-12-20T11:19:29;8.03;;;4.80;;
19812;SDS011;10066;48.108;11.448;2022-12-20T11:22:05;8.07;;;3.73;;
19812;SDS011;10066;48.108;11.448;2022-12-20T11:24:42;7.10;;;3.70;;
19812;SDS011;10066;48.108;11.448;2022-12-20T11:27:15;9.23;;;3.67;;
19812;SDS011;10066;48.108;11.448;2022-12-20T11:30:02;4.67;;;3.10;;
19812;SDS011;10066;48.108;11.448;2022-12-20T11:32:37;7.33;;;3.17;;
19812;SDS011;10066;48.108;11.448;2022-12-20T11:35:23;5.13;;;3.00;;
19812;SDS011;10066;48.108;11.448;2022-12-20T11:37:59;5.97;;;3.20;;
19812;SDS011;10066;48.108;11.448;2022-12-20T11:40:32;5.93;;;3.17;;
19812;SDS011;10066;48.108;11.448;2022-12-20T11:43:21;6.17;;;3.50;;
19812;SDS011;10066;48.108;11.448;2022-12-20T11:46:01;7.63;;;4.30;;
19812;SDS011;10066;48.108;11.448;2022-12-20T11:48:42;6.27;;;4.07;;
19812;SDS011;10066;48.108;11.448;2022-12-20T11:51:25;9.97;;;4.40;;
19812;SDS011;10066;48.108;11.448;2022-12-20T11:54:02;10.03;;;4.80;;
19812;SDS011;10066;48.108;11.448;2022-12-20T11:56:36;8.70;;;4.30;;
19812;SDS011;10066;48.108;11.448;2022-12-20T11:59:06;7.93;;;3.27;;
19812;SDS011;10066;48.108;11.448;2022-12-20T12:01:41;6.37;;;3.50;;
19812;SDS011;10066;48.108;11.448;2022-12-20T12:04:13;6.97;;;2.77;;
19812;SDS011;10066;48.108;11.448;2022-12-20T12:06:45;6.80;;;3.20;;
19812;SDS011;10066;48.108;11.448;2022-12-20T12:09:20;11.93;;;3.77;;
19812;SDS011;10066;48.108;11.448;2022-12-20T12:11:51;5.97;;;3.27;;
19812;SDS011;10066;48.108;11.448;2022-12-20T12:14:27;7.60;;;3.43;;
19812;SDS011;10066;48.108;11.448;2022-12-20T12:17:01;6.17;;;3.57;;
19812;SDS011;10066;48.108;11.448;2022-12-20T12:19:34;9.17;;;3.47;;
19812;SDS011;10066;48.108;11.448;2022-12-20T12:22:08;4.87;;;3.20;;
19812;SDS011;10066;48.108;11.448;2022-12-20T12:24:42;6.43;;;3.43;;
19812;SDS011;10066;48.108;11.448;2022-12-20T12:27:14;6.50;;;4.00;;
19812;SDS011;10066;48.108;11.448;2022-12-20T12:29:46;7.27;;;3.17;;
19812;SDS011;10066;48.108;11.448;2022-12-20T12:32:15;4.53;;;3.20;;
19812;SDS011;10066;48.108;11.448;2022-12-20T12:34:48;4.10;;;2.90;;
19812;SDS011;10066;48.108;11.448;2022-12-20T12:37:30;5.70;;;3.23;;
19812;SDS011;10066;48.108;11.448;2022-12-20T12:43:20;6.80;;;2.80;;
19812;SDS011;10066;48.108;11.448;2022-12-20T12:46:07;4.07;;;3.37;;
19812;SDS011;10066;48.108;11.448;2022-12-20T12:48:41;5.30;;;2.97;;
19812;SDS011;10066;48.108;11.448;2022-12-20T12:51:11;6.93;;;3.27;;
19812;SDS011;10066;48.108;11.448;2022-12-20T12:53:42;8.23;;;3.27;;
19812;SDS011;10066;48.108;11.448;2022-12-20T13:02:22;7.33;;;3.67;;
19812;SDS011;10066;48.108;11.448;2022-12-20T13:05:00;6.03;;;4.20;;
19812;SDS011;10066;48.108;11.448;2022-12-20T13:07:49;6.37;;;4.00;;
19812;SDS011;10066;48.108;11.448;2022-12-20T13:13:23;5.53;;;4.00;;
19812;SDS011;10066;48.108;11.448;2022-12-20T13:18:55;4.83;;;3.47;;
19812;SDS011;10066;48.108;11.448;2022-12-20T13:21:37;6.63;;;4.00;;
19812;SDS011;10066;48.108;11.448;2022-12-20T13:32:53;7.53;;;4.10;;
19812;SDS011;10066;48.108;11.448;2022-12-20T13:35:41;5.33;;;3.53;;
19812;SDS011;10066;48.108;11.448;2022-12-20T13:41:20;7.00;;;3.63;;
19812;SDS011;10066;48.108;11.448;2022-12-20T13:44:00;5.83;;;3.30;;
19812;SDS011;10066;48.108;11.448;2022-12-20T13:46:46;4.07;;;3.33;;
19812;SDS011;10066;48.108;11.448;2022-12-20T13:49:20;7.53;;;3.57;;
19812;SDS011;10066;48.108;11.448;2022-12-20T13:52:05;6.33;;;3.67;;
19812;SDS011;10066;48.108;11.448;2022-12-20T13:54:38;5.10;;;3.37;;
19812;SDS011;10066;48.108;11.448;2022-12-20T13:57:10;9.03;;;3.70;;
19812;SDS011;10066;48.108;11.448;2022-12-20T13:59:43;7.17;;;3.90;;
19812;SDS011;10066;48.108;11.448;2022-12-20T14:02:16;9.27;;;4.17;;
19812;SDS011;10066;48.108;11.448;2022-12-20T14:04:53;8.63;;;3.90;;
19812;SDS011;10066;48.108;11.448;2022-12-20T14:07:23;6.73;;;4.00;;
19812;SDS011;10066;48.108;11.448;2022-12-20T14:09:55;9.20;;;4.43;;
19812;SDS011;10066;48.108;11.448;2022-12-20T14:12:25;6.30;;;3.80;;
19812;SDS011;10066;48.108;11.448;2022-12-20T14:14:53;7.50;;;4.40;;
19812;SDS011;10066;48.108;11.448;2022-12-20T14:17:22;10.20;;;4.50;;
19812;SDS011;10066;48.108;11.448;2022-12-20T14:20:12;8.33;;;4.90;;
19812;SDS011;10066;48.108;11.448;2022-12-20T14:22:41;9.63;;;5.53;;
19812;SDS011;10066;48.108;11.448;2022-12-20T14:25:26;12.73;;;5.80;;
19812;SDS011;10066;48.108;11.448;2022-12-20T14:28:04;9.57;;;4.80;;
19812;SDS011;10066;48.108;11.448;2022-12-20T14:30:40;5.93;;;3.80;;
19812;SDS011;10066;48.108;11.448;2022-12-20T14:33:17;6.27;;;3.80;;
19812;SDS011;10066;48.108;11.448;2022-12-20T14:35:54;6.80;;;3.73;;
19812;SDS011;10066;48.108;11.448;2022-12-20T14:38:22;8.87;;;4.20;;
19812;SDS011;10066;48.108;11.448;2022-12-20T14:40:54;7.10;;;4.60;;
19812;SDS011;10066;48.108;11.448;2022-12-20T14:43:25;7.17;;;4.60;;
19812;SDS011;10066;48.108;11.448;2022-12-20T14:46:07;7.67;;;4.50;;
19812;SDS011;10066;48.108;11.448;2022-12-20T14:48:44;9.33;;;4.97;;
19812;SDS011;10066;48.108;11.448;2022-12-20T14:51:12;10.57;;;5.43;;
19812;SDS011;10066;48.108;11.448;2022-12-20T14:53:50;8.70;;;5.30;;
19812;SDS011;10066;48.108;11.448;2022-12-20T14:56:18;8.97;;;5.30;;
19812;SDS011;10066;48.108;11.448;2022-12-20T14:59:01;9.50;;;5.60;;
19812;SDS011;10066;48.108;11.448;2022-12-20T15:01:31;9.53;;;6.20;;
19812;SDS011;10066;48.108;11.448;2022-12-20T15:03:59;11.00;;;6.93;;
19812;SDS011;10066;48.108;11.448;2022-12-20T15:06:33;11.50;;;6.17;;
19812;SDS011;10066;48.108;11.448;2022-12-20T15:09:03;10.53;;;6.27;;
19812;SDS011;10066;48.108;11.448;2022-12-20T15:11:30;10.83;;;6.20;;
19812;SDS011;10066;48.108;11.448;2022-12-20T15:14:01;10.47;;;5.60;;
19812;SDS011;10066;48.108;11.448;2022-12-20T15:16:38;9.70;;;6.20;;
19812;SDS011;10066;48.108;11.448;2022-12-20T15:19:12;9.10;;;5.70;;
19812;SDS011;10066;48.108;11.448;2022-12-20T15:21:39;11.63;;;5.97;;